Sigel, IL (62462)

8:39 AM CST on January 26, 2015 (GMT -0600)
N. Teutopolis | Change Station
CLOSE
Current Station
Personal Weather Station
Location: Teutopolis, IL
Elevation: 587 ft
Nearby Weather Stations

Elev 587 ft 39.16 °N, 88.49 °W | Updated 10 minutes ago

Overcast
Overcast
25.9 °F
Feels Like 17 °F
N
8.0
Wind Variable Wind from WNW
Gusts 10.0 mph

Today
High -- | Low -- °F
--% Chance of Precip.
Yesterday
High -- | Low -- °F
Precip. -- in
7:05 AM 5:07 PM
Waxing Crescent, 43% visible
Pressure 30.03 in
Visibility 10.0 miles
Clouds Overcast 1100 ft
Windchill 17 °F
Dew Point 23 °F
Humidity 90%
Rainfall 0.00 in
Snow Depth Not available.
UV 0 out of 12
Pollen .10 out of 12
Air Quality Not available.
Flu Activity Not available.
METAR K1H2 261415Z AUTO 27008KT 10SM OVC011 M03/M06 A3003 RMK AO2 T10281061

More Conditions Fewer Conditions

Pressure 30.03 in
Visibility 10.0 miles
Clouds Overcast 1100 ft
Windchill 17 °F
Dew Point 23 °F
Humidity 90%
Rainfall 0.00 in
Snow Depth Not available.
UV 0 out of 12
Pollen .10 out of 12
Air Quality Not available.
Flu Activity Not available.
METAR K1H2 261415Z AUTO 27008KT 10SM OVC011 M03/M06 A3003 RMK AO2 T10281061

More Conditions Fewer Conditions

10-Day Weather Forecast

Almanac

Astronomy

Jan. 26, 2015 Rise Set
Actual Time
Civil Twilight
Nautical Twilight
Astronomical Twilight
Moon
Length of Visible Light
Length of Day
Tomorrow will be .
, % of the Moon is Illuminated

Today's Extremes

State Highs State Lows

Community

WunderPhotos

Upload Photos

1,790,226 photos uploaded!

WunderBlogs® & News

Nearby

Air Quality

  Air Quality AQ Index Pollutant
Not available.

Snow Depth

Station Depth Elevation

Earthquake Activity

City Distance Mag. Time & Date
Minimum magnitude displayed is 2.5.

Coastal Water Temperatures

Place Temperature

Nearby Weather Stations